sensor_id;sensor_type;location;lat;lon;timestamp;temperature;humidity
38860;DHT22;24609;48.316;16.174;2024-03-07T00:00:06;6.10;57.10
38860;DHT22;24609;48.316;16.174;2024-03-07T00:02:51;6.10;99.90
38860;DHT22;24609;48.316;16.174;2024-03-07T00:05:19;6.20;99.90
38860;DHT22;24609;48.316;16.174;2024-03-07T00:07:45;6.20;99.90
38860;DHT22;24609;48.316;16.174;2024-03-07T00:10:11;6.10;99.90
38860;DHT22;24609;48.316;16.174;2024-03-07T00:12:38;6.10;99.90
38860;DHT22;24609;48.316;16.174;2024-03-07T00:15:07;6.10;99.90
38860;DHT22;24609;48.316;16.174;2024-03-07T00:17:33;6.10;99.90
38860;DHT22;24609;48.316;16.174;2024-03-07T00:20:00;6.10;99.90
38860;DHT22;24609;48.316;16.174;2024-03-07T00:22:26;6.00;99.90
38860;DHT22;24609;48.316;16.174;2024-03-07T00:24:55;6.00;99.90
38860;DHT22;24609;48.316;16.174;2024-03-07T00:27:22;5.90;99.90
38860;DHT22;24609;48.316;16.174;2024-03-07T00:29:48;5.90;1.00
38860;DHT22;24609;48.316;16.174;2024-03-07T00:32:22;6.10;1.00
38860;DHT22;24609;48.316;16.174;2024-03-07T00:34:49;6.10;99.90
38860;DHT22;24609;48.316;16.174;2024-03-07T00:37:15;6.20;99.90
38860;DHT22;24609;48.316;16.174;2024-03-07T00:39:41;6.30;99.90
38860;DHT22;24609;48.316;16.174;2024-03-07T00:42:07;6.30;99.90
38860;DHT22;24609;48.316;16.174;2024-03-07T00:44:33;6.30;99.90
38860;DHT22;24609;48.316;16.174;2024-03-07T00:47:02;6.30;99.90
38860;DHT22;24609;48.316;16.174;2024-03-07T00:49:29;6.30;77.50
38860;DHT22;24609;48.316;16.174;2024-03-07T00:51:56;6.30;99.90
38860;DHT22;24609;48.316;16.174;2024-03-07T00:54:21;6.30;99.90
38860;DHT22;24609;48.316;16.174;2024-03-07T00:56:48;6.30;99.90
38860;DHT22;24609;48.316;16.174;2024-03-07T00:59:15;6.30;99.90
38860;DHT22;24609;48.316;16.174;2024-03-07T01:01:41;6.30;99.90
38860;DHT22;24609;48.316;16.174;2024-03-07T01:04:07;6.40;99.90
38860;DHT22;24609;48.316;16.174;2024-03-07T01:06:34;6.30;1.00
38860;DHT22;24609;48.316;16.174;2024-03-07T01:08:59;6.30;1.00
38860;DHT22;24609;48.316;16.174;2024-03-07T01:11:25;6.30;1.00
38860;DHT22;24609;48.316;16.174;2024-03-07T01:13:51;6.20;1.00
38860;DHT22;24609;48.316;16.174;2024-03-07T01:16:17;6.30;99.90
38860;DHT22;24609;48.316;16.174;2024-03-07T01:18:43;6.20;75.60
38860;DHT22;24609;48.316;16.174;2024-03-07T01:21:08;6.20;1.00
38860;DHT22;24609;48.316;16.174;2024-03-07T01:23:35;6.20;99.90
38860;DHT22;24609;48.316;16.174;2024-03-07T01:26:01;6.20;1.00
38860;DHT22;24609;48.316;16.174;2024-03-07T01:28:28;6.20;1.00
38860;DHT22;24609;48.316;16.174;2024-03-07T01:30:56;6.10;1.00
38860;DHT22;24609;48.316;16.174;2024-03-07T01:33:23;6.20;60.00
38860;DHT22;24609;48.316;16.174;2024-03-07T01:35:49;6.20;95.90
38860;DHT22;24609;48.316;16.174;2024-03-07T01:38:16;6.20;1.00
38860;DHT22;24609;48.316;16.174;2024-03-07T01:40:42;6.20;1.00
38860;DHT22;24609;48.316;16.174;2024-03-07T01:43:09;6.20;32.00
38860;DHT22;24609;48.316;16.174;2024-03-07T01:45:36;6.20;1.00
38860;DHT22;24609;48.316;16.174;2024-03-07T01:48:04;6.20;1.00
38860;DHT22;24609;48.316;16.174;2024-03-07T01:50:30;6.10;1.00
38860;DHT22;24609;48.316;16.174;2024-03-07T01:52:55;6.10;99.90
38860;DHT22;24609;48.316;16.174;2024-03-07T01:55:22;6.10;99.90
38860;DHT22;24609;48.316;16.174;2024-03-07T01:57:50;6.10;99.90
38860;DHT22;24609;48.316;16.174;2024-03-07T02:00:16;6.10;99.90
38860;DHT22;24609;48.316;16.174;2024-03-07T02:02:44;6.10;99.90
38860;DHT22;24609;48.316;16.174;2024-03-07T02:05:10;6.10;99.90
38860;DHT22;24609;48.316;16.174;2024-03-07T02:07:36;6.10;99.90
38860;DHT22;24609;48.316;16.174;2024-03-07T02:10:03;6.10;29.60
38860;DHT22;24609;48.316;16.174;2024-03-07T02:12:32;6.10;99.90
38860;DHT22;24609;48.316;16.174;2024-03-07T02:14:58;6.10;99.90
38860;DHT22;24609;48.316;16.174;2024-03-07T02:17:27;6.10;75.40
38860;DHT22;24609;48.316;16.174;2024-03-07T02:19:53;6.10;99.60
38860;DHT22;24609;48.316;16.174;2024-03-07T02:22:19;6.20;99.90
38860;DHT22;24609;48.316;16.174;2024-03-07T02:24:45;6.10;99.90
38860;DHT22;24609;48.316;16.174;2024-03-07T02:27:11;6.10;1.00
38860;DHT22;24609;48.316;16.174;2024-03-07T02:29:37;6.20;99.90
38860;DHT22;24609;48.316;16.174;2024-03-07T02:32:03;6.10;52.20
38860;DHT22;24609;48.316;16.174;2024-03-07T02:34:29;6.10;1.00
38860;DHT22;24609;48.316;16.174;2024-03-07T02:36:55;6.10;1.00
38860;DHT22;24609;48.316;16.174;2024-03-07T02:39:21;6.10;1.00
38860;DHT22;24609;48.316;16.174;2024-03-07T02:41:47;6.10;1.00
38860;DHT22;24609;48.316;16.174;2024-03-07T02:44:14;6.10;99.90
38860;DHT22;24609;48.316;16.174;2024-03-07T02:46:40;6.10;99.90
38860;DHT22;24609;48.316;16.174;2024-03-07T02:49:06;6.10;1.00
38860;DHT22;24609;48.316;16.174;2024-03-07T02:51:31;6.10;1.00
38860;DHT22;24609;48.316;16.174;2024-03-07T02:53:57;6.10;1.00
38860;DHT22;24609;48.316;16.174;2024-03-07T02:56:26;6.10;1.00
38860;DHT22;24609;48.316;16.174;2024-03-07T02:58:51;6.10;99.90
38860;DHT22;24609;48.316;16.174;2024-03-07T03:01:17;6.10;99.90
38860;DHT22;24609;48.316;16.174;2024-03-07T03:03:43;6.10;99.90
38860;DHT22;24609;48.316;16.174;2024-03-07T03:06:10;6.10;1.00
38860;DHT22;24609;48.316;16.174;2024-03-07T03:08:36;6.10;1.00
38860;DHT22;24609;48.316;16.174;2024-03-07T03:11:03;6.10;99.90
38860;DHT22;24609;48.316;16.174;2024-03-07T03:13:29;6.10;1.00
38860;DHT22;24609;48.316;16.174;2024-03-07T03:15:55;6.10;1.00
38860;DHT22;24609;48.316;16.174;2024-03-07T03:18:24;6.10;17.10
38860;DHT22;24609;48.316;16.174;2024-03-07T03:20:50;6.10;1.00
38860;DHT22;24609;48.316;16.174;2024-03-07T03:23:16;6.10;1.00
38860;DHT22;24609;48.316;16.174;2024-03-07T03:25:42;6.10;1.00
38860;DHT22;24609;48.316;16.174;2024-03-07T03:28:09;6.10;1.00
38860;DHT22;24609;48.316;16.174;2024-03-07T03:30:37;6.10;1.00
38860;DHT22;24609;48.316;16.174;2024-03-07T03:33:03;6.10;1.00
38860;DHT22;24609;48.316;16.174;2024-03-07T03:35:29;6.10;1.00
38860;DHT22;24609;48.316;16.174;2024-03-07T03:37:54;6.00;1.00
38860;DHT22;24609;48.316;16.174;2024-03-07T03:40:20;6.10;1.00
38860;DHT22;24609;48.316;16.174;2024-03-07T03:42:46;6.00;1.00
38860;DHT22;24609;48.316;16.174;2024-03-07T03:45:11;6.10;1.00
38860;DHT22;24609;48.316;16.174;2024-03-07T03:47:41;6.10;1.00
38860;DHT22;24609;48.316;16.174;2024-03-07T03:50:09;6.10;1.00
38860;DHT22;24609;48.316;16.174;2024-03-07T03:52:35;6.10;1.00
38860;DHT22;24609;48.316;16.174;2024-03-07T03:55:01;6.10;99.90
38860;DHT22;24609;48.316;16.174;2024-03-07T03:57:28;6.10;99.90
38860;DHT22;24609;48.316;16.174;2024-03-07T03:59:57;6.10;99.90
38860;DHT22;24609;48.316;16.174;2024-03-07T04:02:23;6.10;99.90
38860;DHT22;24609;48.316;16.174;2024-03-07T04:04:49;6.10;99.90
38860;DHT22;24609;48.316;16.174;2024-03-07T04:07:15;6.10;99.90
38860;DHT22;24609;48.316;16.174;2024-03-07T04:09:44;6.10;99.90
38860;DHT22;24609;48.316;16.174;2024-03-07T04:12:11;6.10;99.90
38860;DHT22;24609;48.316;16.174;2024-03-07T04:14:43;6.10;99.90
38860;DHT22;24609;48.316;16.174;2024-03-07T04:17:10;6.10;99.90
38860;DHT22;24609;48.316;16.174;2024-03-07T04:19:41;6.10;99.90
38860;DHT22;24609;48.316;16.174;2024-03-07T04:22:07;6.00;47.10
38860;DHT22;24609;48.316;16.174;2024-03-07T04:24:36;6.10;99.90
38860;DHT22;24609;48.316;16.174;2024-03-07T04:27:02;6.00;99.90
38860;DHT22;24609;48.316;16.174;2024-03-07T04:29:30;6.10;99.90
38860;DHT22;24609;48.316;16.174;2024-03-07T04:31:56;6.10;1.00
38860;DHT22;24609;48.316;16.174;2024-03-07T04:34:21;6.10;1.00
38860;DHT22;24609;48.316;16.174;2024-03-07T04:36:47;6.00;1.00
38860;DHT22;24609;48.316;16.174;2024-03-07T04:39:13;6.00;99.90
38860;DHT22;24609;48.316;16.174;2024-03-07T04:41:59;6.00;99.90
38860;DHT22;24609;48.316;16.174;2024-03-07T04:44:26;6.00;99.90
38860;DHT22;24609;48.316;16.174;2024-03-07T04:46:52;6.00;99.90
38860;DHT22;24609;48.316;16.174;2024-03-07T04:49:25;6.00;99.90
38860;DHT22;24609;48.316;16.174;2024-03-07T04:51:51;6.00;99.90
38860;DHT22;24609;48.316;16.174;2024-03-07T04:54:18;6.00;1.00
38860;DHT22;24609;48.316;16.174;2024-03-07T04:56:45;6.00;91.20
38860;DHT22;24609;48.316;16.174;2024-03-07T04:59:11;5.90;99.90
38860;DHT22;24609;48.316;16.174;2024-03-07T05:01:38;6.00;1.00
38860;DHT22;24609;48.316;16.174;2024-03-07T05:04:04;5.90;1.00
38860;DHT22;24609;48.316;16.174;2024-03-07T05:06:30;5.90;99.90
38860;DHT22;24609;48.316;16.174;2024-03-07T05:09:02;5.90;1.00
38860;DHT22;24609;48.316;16.174;2024-03-07T05:11:31;5.90;99.90
38860;DHT22;24609;48.316;16.174;2024-03-07T05:13:57;5.90;99.90
38860;DHT22;24609;48.316;16.174;2024-03-07T05:16:32;5.90;1.00
38860;DHT22;24609;48.316;16.174;2024-03-07T05:18:58;5.80;24.70
38860;DHT22;24609;48.316;16.174;2024-03-07T05:21:25;5.80;1.00
38860;DHT22;24609;48.316;16.174;2024-03-07T05:24:06;5.80;1.00
38860;DHT22;24609;48.316;16.174;2024-03-07T05:26:34;5.70;1.00
38860;DHT22;24609;48.316;16.174;2024-03-07T05:29:05;5.80;50.00
38860;DHT22;24609;48.316;16.174;2024-03-07T05:31:34;5.80;1.00
38860;DHT22;24609;48.316;16.174;2024-03-07T05:34:01;5.80;1.00
38860;DHT22;24609;48.316;16.174;2024-03-07T05:36:30;5.80;1.00
38860;DHT22;24609;48.316;16.174;2024-03-07T05:38:56;5.80;1.00
38860;DHT22;24609;48.316;16.174;2024-03-07T05:41:22;5.70;29.50
38860;DHT22;24609;48.316;16.174;2024-03-07T05:43:47;5.70;99.90
38860;DHT22;24609;48.316;16.174;2024-03-07T05:46:16;5.70;99.90
38860;DHT22;24609;48.316;16.174;2024-03-07T05:48:42;5.70;99.90
38860;DHT22;24609;48.316;16.174;2024-03-07T05:51:08;5.70;99.90
38860;DHT22;24609;48.316;16.174;2024-03-07T05:53:35;5.70;99.90
38860;DHT22;24609;48.316;16.174;2024-03-07T05:56:03;5.70;73.30
38860;DHT22;24609;48.316;16.174;2024-03-07T05:58:28;5.70;99.90
38860;DHT22;24609;48.316;16.174;2024-03-07T06:00:54;5.80;99.90
38860;DHT22;24609;48.316;16.174;2024-03-07T06:03:19;5.80;99.90
38860;DHT22;24609;48.316;16.174;2024-03-07T06:05:48;5.80;22.40
38860;DHT22;24609;48.316;16.174;2024-03-07T06:08:15;5.80;99.90
38860;DHT22;24609;48.316;16.174;2024-03-07T06:10:45;5.80;99.90
38860;DHT22;24609;48.316;16.174;2024-03-07T06:13:12;5.80;1.00
38860;DHT22;24609;48.316;16.174;2024-03-07T06:15:43;5.80;52.60
38860;DHT22;24609;48.316;16.174;2024-03-07T06:18:09;5.70;1.00
38860;DHT22;24609;48.316;16.174;2024-03-07T06:20:36;5.80;1.00
38860;DHT22;24609;48.316;16.174;2024-03-07T06:23:03;5.70;1.00
38860;DHT22;24609;48.316;16.174;2024-03-07T06:25:31;5.80;99.90
38860;DHT22;24609;48.316;16.174;2024-03-07T06:28:12;5.80;99.90
38860;DHT22;24609;48.316;16.174;2024-03-07T06:30:39;5.80;99.90
38860;DHT22;24609;48.316;16.174;2024-03-07T06:33:06;5.80;99.90
38860;DHT22;24609;48.316;16.174;2024-03-07T06:35:32;5.80;99.90
38860;DHT22;24609;48.316;16.174;2024-03-07T06:38:00;5.90;1.00
38860;DHT22;24609;48.316;16.174;2024-03-07T06:40:26;6.00;1.00
38860;DHT22;24609;48.316;16.174;2024-03-07T06:42:52;6.00;61.00
38860;DHT22;24609;48.316;16.174;2024-03-07T06:45:18;6.00;99.90
38860;DHT22;24609;48.316;16.174;2024-03-07T06:47:44;6.00;99.90
38860;DHT22;24609;48.316;16.174;2024-03-07T06:50:10;6.00;91.30
38860;DHT22;24609;48.316;16.174;2024-03-07T06:52:40;6.00;99.90
38860;DHT22;24609;48.316;16.174;2024-03-07T06:55:06;6.00;99.90
38860;DHT22;24609;48.316;16.174;2024-03-07T06:57:33;6.00;99.90
38860;DHT22;24609;48.316;16.174;2024-03-07T07:00:00;5.90;1.00
38860;DHT22;24609;48.316;16.174;2024-03-07T07:02:25;5.90;54.50
38860;DHT22;24609;48.316;16.174;2024-03-07T07:04:53;5.80;99.90
38860;DHT22;24609;48.316;16.174;2024-03-07T07:07:19;5.90;29.10
38860;DHT22;24609;48.316;16.174;2024-03-07T07:09:45;6.00;99.90
38860;DHT22;24609;48.316;16.174;2024-03-07T07:12:11;6.10;99.90
38860;DHT22;24609;48.316;16.174;2024-03-07T07:14:37;6.20;99.90
38860;DHT22;24609;48.316;16.174;2024-03-07T07:17:04;6.30;99.90
38860;DHT22;24609;48.316;16.174;2024-03-07T07:19:30;6.40;1.00
38860;DHT22;24609;48.316;16.174;2024-03-07T07:21:55;6.40;1.00
38860;DHT22;24609;48.316;16.174;2024-03-07T07:24:22;6.40;1.00
38860;DHT22;24609;48.316;16.174;2024-03-07T07:26:49;6.20;28.50
38860;DHT22;24609;48.316;16.174;2024-03-07T07:29:15;6.30;99.90
38860;DHT22;24609;48.316;16.174;2024-03-07T07:31:41;6.20;99.90
38860;DHT22;24609;48.316;16.174;2024-03-07T07:34:07;6.10;22.50
38860;DHT22;24609;48.316;16.174;2024-03-07T07:36:33;6.10;22.00
38860;DHT22;24609;48.316;16.174;2024-03-07T07:38:58;6.10;99.90
38860;DHT22;24609;48.316;16.174;2024-03-07T07:41:24;6.10;1.00
38860;DHT22;24609;48.316;16.174;2024-03-07T07:43:50;6.10;1.00
38860;DHT22;24609;48.316;16.174;2024-03-07T07:46:17;6.10;10.50
38860;DHT22;24609;48.316;16.174;2024-03-07T07:48:43;6.10;99.90
38860;DHT22;24609;48.316;16.174;2024-03-07T07:51:09;6.10;99.90
38860;DHT22;24609;48.316;16.174;2024-03-07T07:53:35;6.20;99.90
38860;DHT22;24609;48.316;16.174;2024-03-07T07:56:00;6.30;22.50
38860;DHT22;24609;48.316;16.174;2024-03-07T07:58:26;6.50;99.90
38860;DHT22;24609;48.316;16.174;2024-03-07T08:00:52;6.60;1.00
38860;DHT22;24609;48.316;16.174;2024-03-07T08:03:18;6.60;99.90
38860;DHT22;24609;48.316;16.174;2024-03-07T08:05:44;6.50;1.00
38860;DHT22;24609;48.316;16.174;2024-03-07T08:08:10;6.60;1.00
38860;DHT22;24609;48.316;16.174;2024-03-07T08:10:39;6.50;99.90
38860;DHT22;24609;48.316;16.174;2024-03-07T08:13:06;6.60;1.00
38860;DHT22;24609;48.316;16.174;2024-03-07T08:15:33;6.70;99.90
38860;DHT22;24609;48.316;16.174;2024-03-07T08:18:00;6.80;99.90
38860;DHT22;24609;48.316;16.174;2024-03-07T08:20:27;6.70;99.90
38860;DHT22;24609;48.316;16.174;2024-03-07T08:22:54;6.70;99.90
38860;DHT22;24609;48.316;16.174;2024-03-07T08:25:25;6.70;99.90
38860;DHT22;24609;48.316;16.174;2024-03-07T08:27:52;6.80;99.90
38860;DHT22;24609;48.316;16.174;2024-03-07T08:30:19;6.90;99.90
38860;DHT22;24609;48.316;16.174;2024-03-07T08:32:47;6.90;99.90
38860;DHT22;24609;48.316;16.174;2024-03-07T08:35:14;6.90;99.90
38860;DHT22;24609;48.316;16.174;2024-03-07T08:37:42;6.70;99.90
38860;DHT22;24609;48.316;16.174;2024-03-07T08:40:10;6.70;99.90
38860;DHT22;24609;48.316;16.174;2024-03-07T08:42:37;6.80;99.90
38860;DHT22;24609;48.316;16.174;2024-03-07T08:45:04;7.10;99.90
38860;DHT22;24609;48.316;16.174;2024-03-07T08:47:37;7.30;99.90
38860;DHT22;24609;48.316;16.174;2024-03-07T08:50:06;7.70;99.90
38860;DHT22;24609;48.316;16.174;2024-03-07T08:52:34;7.70;99.90
38860;DHT22;24609;48.316;16.174;2024-03-07T08:55:04;7.70;99.90
38860;DHT22;24609;48.316;16.174;2024-03-07T08:57:30;7.70;99.90
38860;DHT22;24609;48.316;16.174;2024-03-07T08:59:56;8.00;99.90
38860;DHT22;24609;48.316;16.174;2024-03-07T09:02:22;8.20;61.20
38860;DHT22;24609;48.316;16.174;2024-03-07T09:04:48;7.80;1.00
38860;DHT22;24609;48.316;16.174;2024-03-07T09:07:14;7.90;14.40
38860;DHT22;24609;48.316;16.174;2024-03-07T09:09:43;7.80;1.00
38860;DHT22;24609;48.316;16.174;2024-03-07T09:12:11;8.10;1.00
38860;DHT22;24609;48.316;16.174;2024-03-07T09:14:37;8.50;1.00
38860;DHT22;24609;48.316;16.174;2024-03-07T09:17:03;8.90;1.00
38860;DHT22;24609;48.316;16.174;2024-03-07T09:19:30;8.90;1.00
38860;DHT22;24609;48.316;16.174;2024-03-07T09:21:56;10.10;1.00
38860;DHT22;24609;48.316;16.174;2024-03-07T09:24:22;9.60;1.00
38860;DHT22;24609;48.316;16.174;2024-03-07T09:26:52;8.80;1.00
38860;DHT22;24609;48.316;16.174;2024-03-07T09:29:18;8.50;1.00
38860;DHT22;24609;48.316;16.174;2024-03-07T09:31:49;8.50;1.00
38860;DHT22;24609;48.316;16.174;2024-03-07T09:34:17;8.60;1.00
38860;DHT22;24609;48.316;16.174;2024-03-07T09:36:44;8.40;1.00
38860;DHT22;24609;48.316;16.174;2024-03-07T09:39:11;8.30;1.00
38860;DHT22;24609;48.316;16.174;2024-03-07T09:41:40;8.80;1.00
38860;DHT22;24609;48.316;16.174;2024-03-07T09:44:09;8.90;1.00
38860;DHT22;24609;48.316;16.174;2024-03-07T09:46:38;9.10;1.00
38860;DHT22;24609;48.316;16.174;2024-03-07T09:49:04;9.40;1.00
38860;DHT22;24609;48.316;16.174;2024-03-07T09:51:31;8.60;1.00
38860;DHT22;24609;48.316;16.174;2024-03-07T09:53:59;7.90;1.00
38860;DHT22;24609;48.316;16.174;2024-03-07T09:56:25;7.60;1.00
38860;DHT22;24609;48.316;16.174;2024-03-07T09:58:53;7.50;1.00
38860;DHT22;24609;48.316;16.174;2024-03-07T10:01:25;7.40;1.00
38860;DHT22;24609;48.316;16.174;2024-03-07T10:03:58;7.20;1.00
38860;DHT22;24609;48.316;16.174;2024-03-07T10:06:24;7.00;1.00
38860;DHT22;24609;48.316;16.174;2024-03-07T10:08:50;6.90;1.00
38860;DHT22;24609;48.316;16.174;2024-03-07T10:11:15;6.70;1.00
38860;DHT22;24609;48.316;16.174;2024-03-07T10:13:41;6.60;30.50
38860;DHT22;24609;48.316;16.174;2024-03-07T10:16:07;6.50;99.90
38860;DHT22;24609;48.316;16.174;2024-03-07T10:18:41;6.70;99.90
38860;DHT22;24609;48.316;16.174;2024-03-07T10:21:07;6.90;99.90
38860;DHT22;24609;48.316;16.174;2024-03-07T10:23:32;7.00;99.90
38860;DHT22;24609;48.316;16.174;2024-03-07T10:26:00;7.10;99.90
38860;DHT22;24609;48.316;16.174;2024-03-07T10:28:27;7.00;99.90
38860;DHT22;24609;48.316;16.174;2024-03-07T10:30:53;7.10;99.90
38860;DHT22;24609;48.316;16.174;2024-03-07T10:33:19;7.40;99.90
38860;DHT22;24609;48.316;16.174;2024-03-07T10:35:49;7.20;99.90
38860;DHT22;24609;48.316;16.174;2024-03-07T10:38:15;7.40;16.80
38860;DHT22;24609;48.316;16.174;2024-03-07T10:40:40;7.50;99.90
38860;DHT22;24609;48.316;16.174;2024-03-07T10:43:10;7.40;99.90
38860;DHT22;24609;48.316;16.174;2024-03-07T10:45:47;7.10;99.90
38860;DHT22;24609;48.316;16.174;2024-03-07T10:48:17;6.80;99.90
38860;DHT22;24609;48.316;16.174;2024-03-07T10:59:20;6.40;1.00
38860;DHT22;24609;48.316;16.174;2024-03-07T11:04:22;6.30;1.00
38860;DHT22;24609;48.316;16.174;2024-03-07T11:06:48;6.40;41.40
38860;DHT22;24609;48.316;16.174;2024-03-07T11:09:15;6.60;44.70
38860;DHT22;24609;48.316;16.174;2024-03-07T11:11:49;6.70;1.00
38860;DHT22;24609;48.316;16.174;2024-03-07T11:14:16;6.70;59.80
38860;DHT22;24609;48.316;16.174;2024-03-07T11:16:43;6.50;36.60
38860;DHT22;24609;48.316;16.174;2024-03-07T11:19:28;6.60;99.90
38860;DHT22;24609;48.316;16.174;2024-03-07T11:21:56;6.70;88.60
38860;DHT22;24609;48.316;16.174;2024-03-07T11:24:29;6.60;29.70
38860;DHT22;24609;48.316;16.174;2024-03-07T11:26:58;6.50;99.90
38860;DHT22;24609;48.316;16.174;2024-03-07T11:29:41;6.30;99.90
38860;DHT22;24609;48.316;16.174;2024-03-07T11:32:11;6.10;99.90
38860;DHT22;24609;48.316;16.174;2024-03-07T11:34:38;6.40;1.00
38860;DHT22;24609;48.316;16.174;2024-03-07T11:37:06;6.60;99.90
38860;DHT22;24609;48.316;16.174;2024-03-07T11:39:46;6.50;99.90
38860;DHT22;24609;48.316;16.174;2024-03-07T11:42:26;6.40;99.90
38860;DHT22;24609;48.316;16.174;2024-03-07T11:44:53;6.20;99.90
38860;DHT22;24609;48.316;16.174;2024-03-07T11:47:24;6.30;1.00
38860;DHT22;24609;48.316;16.174;2024-03-07T11:49:53;6.30;99.90
38860;DHT22;24609;48.316;16.174;2024-03-07T11:52:21;6.40;1.00
38860;DHT22;24609;48.316;16.174;2024-03-07T11:54:47;6.40;1.00
38860;DHT22;24609;48.316;16.174;2024-03-07T11:57:18;6.40;1.00
38860;DHT22;24609;48.316;16.174;2024-03-07T11:59:58;6.30;99.90
38860;DHT22;24609;48.316;16.174;2024-03-07T12:02:27;6.40;99.90
38860;DHT22;24609;48.316;16.174;2024-03-07T12:04:53;6.50;99.90
38860;DHT22;24609;48.316;16.174;2024-03-07T12:07:19;6.60;99.90
38860;DHT22;24609;48.316;16.174;2024-03-07T12:09:49;6.50;99.90
38860;DHT22;24609;48.316;16.174;2024-03-07T12:12:21;6.40;99.90
38860;DHT22;24609;48.316;16.174;2024-03-07T12:14:48;6.40;99.90
38860;DHT22;24609;48.316;16.174;2024-03-07T12:17:14;6.60;99.90
38860;DHT22;24609;48.316;16.174;2024-03-07T12:19:43;6.50;99.90
38860;DHT22;24609;48.316;16.174;2024-03-07T12:22:10;6.40;99.90
38860;DHT22;24609;48.316;16.174;2024-03-07T12:24:39;6.10;99.90
38860;DHT22;24609;48.316;16.174;2024-03-07T12:27:09;6.00;1.00
38860;DHT22;24609;48.316;16.174;2024-03-07T12:29:40;6.00;99.90
38860;DHT22;24609;48.316;16.174;2024-03-07T12:32:06;6.20;99.90
38860;DHT22;24609;48.316;16.174;2024-03-07T12:34:36;6.60;99.90
38860;DHT22;24609;48.316;16.174;2024-03-07T12:37:09;6.80;10.20
38860;DHT22;24609;48.316;16.174;2024-03-07T12:39:35;6.90;1.00
38860;DHT22;24609;48.316;16.174;2024-03-07T12:42:04;7.00;1.00
38860;DHT22;24609;48.316;16.174;2024-03-07T12:44:43;6.70;1.00
38860;DHT22;24609;48.316;16.174;2024-03-07T12:47:12;6.80;99.90
38860;DHT22;24609;48.316;16.174;2024-03-07T12:49:42;7.00;1.00
38860;DHT22;24609;48.316;16.174;2024-03-07T12:52:08;6.70;99.90
38860;DHT22;24609;48.316;16.174;2024-03-07T12:54:35;6.70;1.00
38860;DHT22;24609;48.316;16.174;2024-03-07T12:57:15;7.30;99.90
38860;DHT22;24609;48.316;16.174;2024-03-07T12:59:41;7.90;99.90
38860;DHT22;24609;48.316;16.174;2024-03-07T13:02:11;7.90;99.90
38860;DHT22;24609;48.316;16.174;2024-03-07T13:04:38;8.10;99.90
38860;DHT22;24609;48.316;16.174;2024-03-07T13:07:04;8.10;99.90
38860;DHT22;24609;48.316;16.174;2024-03-07T13:09:31;7.70;99.90
38860;DHT22;24609;48.316;16.174;2024-03-07T13:12:00;7.30;99.90
38860;DHT22;24609;48.316;16.174;2024-03-07T13:14:30;7.00;1.00
38860;DHT22;24609;48.316;16.174;2024-03-07T13:17:01;6.90;99.90
38860;DHT22;24609;48.316;16.174;2024-03-07T13:19:28;6.70;99.90
38860;DHT22;24609;48.316;16.174;2024-03-07T13:21:55;6.60;99.90
38860;DHT22;24609;48.316;16.174;2024-03-07T13:24:22;6.70;99.90
38860;DHT22;24609;48.316;16.174;2024-03-07T13:26:48;6.80;99.90
38860;DHT22;24609;48.316;16.174;2024-03-07T13:29:14;6.70;1.00
38860;DHT22;24609;48.316;16.174;2024-03-07T13:31:42;6.80;99.90
38860;DHT22;24609;48.316;16.174;2024-03-07T13:34:10;6.80;99.90
38860;DHT22;24609;48.316;16.174;2024-03-07T13:36:43;6.90;1.00
38860;DHT22;24609;48.316;16.174;2024-03-07T13:39:10;6.80;31.80
38860;DHT22;24609;48.316;16.174;2024-03-07T13:41:38;6.80;99.90
38860;DHT22;24609;48.316;16.174;2024-03-07T13:44:04;6.60;99.90
38860;DHT22;24609;48.316;16.174;2024-03-07T13:46:30;6.40;90.40
38860;DHT22;24609;48.316;16.174;2024-03-07T13:49:01;6.40;99.90
38860;DHT22;24609;48.316;16.174;2024-03-07T13:51:35;6.40;99.90
38860;DHT22;24609;48.316;16.174;2024-03-07T13:54:02;6.60;99.90
38860;DHT22;24609;48.316;16.174;2024-03-07T13:59:50;6.70;23.10
38860;DHT22;24609;48.316;16.174;2024-03-07T14:26:09;6.40;1.00
38860;DHT22;24609;48.316;16.174;2024-03-07T14:31:11;6.50;14.30
38860;DHT22;24609;48.316;16.174;2024-03-07T14:39:03;6.60;99.90
38860;DHT22;24609;48.316;16.174;2024-03-07T14:42:02;6.70;99.90
38860;DHT22;24609;48.316;16.174;2024-03-07T14:44:39;6.90;99.90
38860;DHT22;24609;48.316;16.174;2024-03-07T14:47:08;6.90;99.90
38860;DHT22;24609;48.316;16.174;2024-03-07T14:49:38;6.90;99.90
38860;DHT22;24609;48.316;16.174;2024-03-07T14:52:05;6.80;99.90
38860;DHT22;24609;48.316;16.174;2024-03-07T14:54:37;6.70;99.90
38860;DHT22;24609;48.316;16.174;2024-03-07T14:57:04;6.70;1.00
38860;DHT22;24609;48.316;16.174;2024-03-07T14:59:30;6.70;1.00
38860;DHT22;24609;48.316;16.174;2024-03-07T15:01:56;6.70;99.90
38860;DHT22;24609;48.316;16.174;2024-03-07T15:04:25;6.80;99.90
38860;DHT22;24609;48.316;16.174;2024-03-07T15:06:52;6.70;99.90
38860;DHT22;24609;48.316;16.174;2024-03-07T15:09:18;6.80;99.90
38860;DHT22;24609;48.316;16.174;2024-03-07T15:11:44;6.80;99.90
38860;DHT22;24609;48.316;16.174;2024-03-07T15:14:10;6.80;99.90
38860;DHT22;24609;48.316;16.174;2024-03-07T15:16:37;6.80;99.90
38860;DHT22;24609;48.316;16.174;2024-03-07T15:19:04;6.80;99.90
38860;DHT22;24609;48.316;16.174;2024-03-07T15:21:31;6.80;99.90
38860;DHT22;24609;48.316;16.174;2024-03-07T15:23:58;6.70;99.90
38860;DHT22;24609;48.316;16.174;2024-03-07T15:26:23;6.50;99.90
38860;DHT22;24609;48.316;16.174;2024-03-07T15:28:53;6.50;1.00
38860;DHT22;24609;48.316;16.174;2024-03-07T15:31:20;6.50;1.00
38860;DHT22;24609;48.316;16.174;2024-03-07T15:33:47;6.50;1.00
38860;DHT22;24609;48.316;16.174;2024-03-07T15:36:13;6.40;99.90
38860;DHT22;24609;48.316;16.174;2024-03-07T15:38:39;6.30;1.00
38860;DHT22;24609;48.316;16.174;2024-03-07T15:41:05;6.10;93.00
38860;DHT22;24609;48.316;16.174;2024-03-07T15:43:33;6.10;99.90
38860;DHT22;24609;48.316;16.174;2024-03-07T15:45:59;6.10;99.90
38860;DHT22;24609;48.316;16.174;2024-03-07T15:48:25;6.10;99.90
38860;DHT22;24609;48.316;16.174;2024-03-07T15:50:52;6.00;99.90
38860;DHT22;24609;48.316;16.174;2024-03-07T15:53:18;6.10;76.80
38860;DHT22;24609;48.316;16.174;2024-03-07T15:55:44;6.10;99.90
38860;DHT22;24609;48.316;16.174;2024-03-07T15:58:10;6.10;99.90
38860;DHT22;24609;48.316;16.174;2024-03-07T16:00:36;6.00;99.90
38860;DHT22;24609;48.316;16.174;2024-03-07T16:03:07;6.00;99.90
38860;DHT22;24609;48.316;16.174;2024-03-07T16:05:34;5.90;1.00
38860;DHT22;24609;48.316;16.174;2024-03-07T16:08:02;5.90;99.90
38860;DHT22;24609;48.316;16.174;2024-03-07T16:10:32;5.80;99.90
38860;DHT22;24609;48.316;16.174;2024-03-07T16:13:00;5.80;1.00
38860;DHT22;24609;48.316;16.174;2024-03-07T16:15:27;5.80;1.00
38860;DHT22;24609;48.316;16.174;2024-03-07T16:17:54;5.70;1.00
38860;DHT22;24609;48.316;16.174;2024-03-07T16:20:21;5.70;1.00
38860;DHT22;24609;48.316;16.174;2024-03-07T16:22:48;5.60;1.00